Kenosha, Wisconsin
Current Conditions -  °F | °C
As of 7:53 PM on Wednesday 22 Oct 2014 (Local Time) from KENW Reporting Station
Clear Clear  
Wind Chill: 37°   Ceiling: Unl
Heat Index: 40°   Visibility: 10mi
Dew Point: 36°   Wind: 5mph
Humidity: 86%   Direction: 120°ESE
Pressure: 30.27"   Gusts: NA
Location:  42.59°N, 87.82°W
Report Text: KENW 230053Z 12004KT 10SM CLR 04/02 A3027 RMK AO2 SLP258 T00440022
Loading
Personal Weather Stations






























Interactive Weather Map New forecast layout! Learn more

10-Day Weather Forecast

Advertisements
Track Severe Weather on mobile